sensor_id;sensor_type;location;lat;lon;timestamp;temperature;humidity
48988;DHT22;34799;51.440;-2.534;2023-09-19T00:00:42;14.10;99.90
48988;DHT22;34799;51.440;-2.534;2023-09-19T00:03:10;14.10;99.90
48988;DHT22;34799;51.440;-2.534;2023-09-19T00:05:40;14.10;99.90
48988;DHT22;34799;51.440;-2.534;2023-09-19T00:08:11;14.10;99.90
48988;DHT22;34799;51.440;-2.534;2023-09-19T00:10:40;14.10;99.90
48988;DHT22;34799;51.440;-2.534;2023-09-19T00:13:09;14.10;99.90
48988;DHT22;34799;51.440;-2.534;2023-09-19T00:15:46;14.10;99.90
48988;DHT22;34799;51.440;-2.534;2023-09-19T00:18:19;14.10;99.90
48988;DHT22;34799;51.440;-2.534;2023-09-19T00:20:59;14.20;99.90
48988;DHT22;34799;51.440;-2.534;2023-09-19T00:23:26;14.10;99.90
48988;DHT22;34799;51.440;-2.534;2023-09-19T00:25:54;14.20;99.90
48988;DHT22;34799;51.440;-2.534;2023-09-19T00:28:25;14.20;99.90
48988;DHT22;34799;51.440;-2.534;2023-09-19T00:30:52;14.20;99.90
48988;DHT22;34799;51.440;-2.534;2023-09-19T00:33:22;14.20;99.90
48988;DHT22;34799;51.440;-2.534;2023-09-19T00:35:53;14.20;99.90
48988;DHT22;34799;51.440;-2.534;2023-09-19T00:38:23;14.20;99.90
48988;DHT22;34799;51.440;-2.534;2023-09-19T00:40:54;14.20;99.90
48988;DHT22;34799;51.440;-2.534;2023-09-19T00:43:22;14.20;99.90
48988;DHT22;34799;51.440;-2.534;2023-09-19T00:45:54;14.30;99.90
48988;DHT22;34799;51.440;-2.534;2023-09-19T00:48:24;14.20;99.90
48988;DHT22;34799;51.440;-2.534;2023-09-19T00:50:54;14.20;99.90
48988;DHT22;34799;51.440;-2.534;2023-09-19T00:53:22;14.20;99.90
48988;DHT22;34799;51.440;-2.534;2023-09-19T00:55:51;14.20;99.90
48988;DHT22;34799;51.440;-2.534;2023-09-19T00:58:19;14.10;99.90
48988;DHT22;34799;51.440;-2.534;2023-09-19T01:00:48;14.10;99.90
48988;DHT22;34799;51.440;-2.534;2023-09-19T01:03:17;14.30;99.90
48988;DHT22;34799;51.440;-2.534;2023-09-19T01:05:46;14.10;99.90
48988;DHT22;34799;51.440;-2.534;2023-09-19T01:08:14;14.00;99.90
48988;DHT22;34799;51.440;-2.534;2023-09-19T01:11:00;14.00;99.90
48988;DHT22;34799;51.440;-2.534;2023-09-19T01:13:55;14.10;99.90
48988;DHT22;34799;51.440;-2.534;2023-09-19T01:28:06;14.00;99.90
48988;DHT22;34799;51.440;-2.534;2023-09-19T01:30:43;14.00;99.90
48988;DHT22;34799;51.440;-2.534;2023-09-19T01:33:11;14.00;99.90
48988;DHT22;34799;51.440;-2.534;2023-09-19T01:35:39;13.90;99.90
48988;DHT22;34799;51.440;-2.534;2023-09-19T01:38:07;13.90;99.90
48988;DHT22;34799;51.440;-2.534;2023-09-19T01:40:41;13.90;99.90
48988;DHT22;34799;51.440;-2.534;2023-09-19T01:43:28;13.90;99.90
48988;DHT22;34799;51.440;-2.534;2023-09-19T01:46:14;13.90;99.90
48988;DHT22;34799;51.440;-2.534;2023-09-19T01:51:40;14.00;99.90
48988;DHT22;34799;51.440;-2.534;2023-09-19T01:54:12;14.00;99.90
48988;DHT22;34799;51.440;-2.534;2023-09-19T01:56:48;14.10;99.90
48988;DHT22;34799;51.440;-2.534;2023-09-19T01:59:23;14.00;99.90
48988;DHT22;34799;51.440;-2.534;2023-09-19T02:01:54;14.00;99.90
48988;DHT22;34799;51.440;-2.534;2023-09-19T02:04:21;14.00;99.90
48988;DHT22;34799;51.440;-2.534;2023-09-19T02:06:49;14.00;99.90
48988;DHT22;34799;51.440;-2.534;2023-09-19T02:09:18;13.90;99.90
48988;DHT22;34799;51.440;-2.534;2023-09-19T02:11:45;13.90;99.90
48988;DHT22;34799;51.440;-2.534;2023-09-19T02:14:13;13.90;99.90
48988;DHT22;34799;51.440;-2.534;2023-09-19T02:16:41;13.90;99.90
48988;DHT22;34799;51.440;-2.534;2023-09-19T02:19:09;13.90;99.90
48988;DHT22;34799;51.440;-2.534;2023-09-19T02:21:37;13.80;99.90
48988;DHT22;34799;51.440;-2.534;2023-09-19T02:24:08;13.90;99.90
48988;DHT22;34799;51.440;-2.534;2023-09-19T02:26:35;13.90;99.90
48988;DHT22;34799;51.440;-2.534;2023-09-19T02:29:06;14.00;99.90
48988;DHT22;34799;51.440;-2.534;2023-09-19T02:31:33;13.90;99.90
48988;DHT22;34799;51.440;-2.534;2023-09-19T02:34:00;13.80;99.90
48988;DHT22;34799;51.440;-2.534;2023-09-19T02:36:27;13.80;99.90
48988;DHT22;34799;51.440;-2.534;2023-09-19T02:38:54;13.80;99.90
48988;DHT22;34799;51.440;-2.534;2023-09-19T02:41:21;13.80;99.90
48988;DHT22;34799;51.440;-2.534;2023-09-19T02:43:48;13.80;99.90
48988;DHT22;34799;51.440;-2.534;2023-09-19T02:46:16;13.90;99.90
48988;DHT22;34799;51.440;-2.534;2023-09-19T02:48:44;13.90;99.90
48988;DHT22;34799;51.440;-2.534;2023-09-19T02:51:12;13.90;99.90
48988;DHT22;34799;51.440;-2.534;2023-09-19T02:53:40;13.90;99.90
48988;DHT22;34799;51.440;-2.534;2023-09-19T02:56:09;13.90;99.90
48988;DHT22;34799;51.440;-2.534;2023-09-19T02:58:38;13.90;99.90
48988;DHT22;34799;51.440;-2.534;2023-09-19T03:01:09;14.00;99.90
48988;DHT22;34799;51.440;-2.534;2023-09-19T03:03:40;14.00;99.90
48988;DHT22;34799;51.440;-2.534;2023-09-19T03:06:08;14.00;99.90
48988;DHT22;34799;51.440;-2.534;2023-09-19T03:08:36;14.00;99.90
48988;DHT22;34799;51.440;-2.534;2023-09-19T03:11:06;14.10;99.90
48988;DHT22;34799;51.440;-2.534;2023-09-19T03:13:35;14.10;99.90
48988;DHT22;34799;51.440;-2.534;2023-09-19T03:16:04;14.10;99.90
48988;DHT22;34799;51.440;-2.534;2023-09-19T03:18:35;14.20;99.90
48988;DHT22;34799;51.440;-2.534;2023-09-19T03:21:03;14.20;99.90
48988;DHT22;34799;51.440;-2.534;2023-09-19T03:23:31;14.20;99.90
48988;DHT22;34799;51.440;-2.534;2023-09-19T03:25:59;14.20;99.90
48988;DHT22;34799;51.440;-2.534;2023-09-19T03:28:29;14.20;99.90
48988;DHT22;34799;51.440;-2.534;2023-09-19T03:30:59;14.20;99.90
48988;DHT22;34799;51.440;-2.534;2023-09-19T03:33:28;14.20;99.90
48988;DHT22;34799;51.440;-2.534;2023-09-19T03:35:55;14.20;99.90
48988;DHT22;34799;51.440;-2.534;2023-09-19T03:38:25;14.20;99.90
48988;DHT22;34799;51.440;-2.534;2023-09-19T03:40:52;14.20;99.90
48988;DHT22;34799;51.440;-2.534;2023-09-19T03:43:20;14.20;99.90
48988;DHT22;34799;51.440;-2.534;2023-09-19T03:45:47;14.20;99.90
48988;DHT22;34799;51.440;-2.534;2023-09-19T03:48:14;14.10;99.90
48988;DHT22;34799;51.440;-2.534;2023-09-19T03:50:41;14.20;99.90
48988;DHT22;34799;51.440;-2.534;2023-09-19T03:53:10;14.20;99.90
48988;DHT22;34799;51.440;-2.534;2023-09-19T03:55:38;14.20;99.90
48988;DHT22;34799;51.440;-2.534;2023-09-19T03:58:08;14.20;99.90
48988;DHT22;34799;51.440;-2.534;2023-09-19T04:00:35;14.20;99.90
48988;DHT22;34799;51.440;-2.534;2023-09-19T04:03:04;14.20;99.90
48988;DHT22;34799;51.440;-2.534;2023-09-19T04:05:33;14.50;99.90
48988;DHT22;34799;51.440;-2.534;2023-09-19T04:08:00;14.20;99.90
48988;DHT22;34799;51.440;-2.534;2023-09-19T04:10:27;14.20;99.90
48988;DHT22;34799;51.440;-2.534;2023-09-19T04:12:55;14.20;99.90
48988;DHT22;34799;51.440;-2.534;2023-09-19T04:15:23;14.30;99.90
48988;DHT22;34799;51.440;-2.534;2023-09-19T04:17:54;14.30;99.90
48988;DHT22;34799;51.440;-2.534;2023-09-19T04:20:22;14.30;99.90
48988;DHT22;34799;51.440;-2.534;2023-09-19T04:22:51;14.30;99.90
48988;DHT22;34799;51.440;-2.534;2023-09-19T04:25:20;14.30;99.90
48988;DHT22;34799;51.440;-2.534;2023-09-19T04:27:48;14.40;99.90
48988;DHT22;34799;51.440;-2.534;2023-09-19T04:30:16;14.40;99.90
48988;DHT22;34799;51.440;-2.534;2023-09-19T04:32:44;14.40;99.90
48988;DHT22;34799;51.440;-2.534;2023-09-19T04:35:12;14.40;99.90
48988;DHT22;34799;51.440;-2.534;2023-09-19T04:37:40;14.40;99.90
48988;DHT22;34799;51.440;-2.534;2023-09-19T04:40:10;14.50;99.90
48988;DHT22;34799;51.440;-2.534;2023-09-19T04:42:45;14.50;99.90
48988;DHT22;34799;51.440;-2.534;2023-09-19T04:45:13;14.40;99.90
48988;DHT22;34799;51.440;-2.534;2023-09-19T04:47:42;14.40;99.90
48988;DHT22;34799;51.440;-2.534;2023-09-19T04:50:10;14.40;99.90
48988;DHT22;34799;51.440;-2.534;2023-09-19T04:52:42;14.40;99.90
48988;DHT22;34799;51.440;-2.534;2023-09-19T04:55:13;14.40;99.90
48988;DHT22;34799;51.440;-2.534;2023-09-19T04:57:44;14.40;99.90
48988;DHT22;34799;51.440;-2.534;2023-09-19T05:00:22;14.40;99.90
48988;DHT22;34799;51.440;-2.534;2023-09-19T05:02:56;14.50;99.90
48988;DHT22;34799;51.440;-2.534;2023-09-19T05:05:24;14.50;99.90
48988;DHT22;34799;51.440;-2.534;2023-09-19T05:07:53;14.50;99.90
48988;DHT22;34799;51.440;-2.534;2023-09-19T05:10:21;14.50;99.90
48988;DHT22;34799;51.440;-2.534;2023-09-19T05:12:48;14.60;99.90
48988;DHT22;34799;51.440;-2.534;2023-09-19T05:15:18;14.60;99.90
48988;DHT22;34799;51.440;-2.534;2023-09-19T05:17:52;14.60;99.90
48988;DHT22;34799;51.440;-2.534;2023-09-19T05:20:23;14.60;99.90
48988;DHT22;34799;51.440;-2.534;2023-09-19T05:23:03;14.60;99.90
48988;DHT22;34799;51.440;-2.534;2023-09-19T05:25:35;14.60;99.90
48988;DHT22;34799;51.440;-2.534;2023-09-19T05:28:06;14.60;99.90
48988;DHT22;34799;51.440;-2.534;2023-09-19T05:30:35;14.60;99.90
48988;DHT22;34799;51.440;-2.534;2023-09-19T05:33:06;14.70;99.90
48988;DHT22;34799;51.440;-2.534;2023-09-19T05:35:36;14.60;99.90
48988;DHT22;34799;51.440;-2.534;2023-09-19T05:38:08;14.60;99.90
48988;DHT22;34799;51.440;-2.534;2023-09-19T05:40:36;14.70;99.90
48988;DHT22;34799;51.440;-2.534;2023-09-19T05:43:04;14.70;99.90
48988;DHT22;34799;51.440;-2.534;2023-09-19T05:45:32;14.80;99.90
48988;DHT22;34799;51.440;-2.534;2023-09-19T05:48:09;14.70;99.90
48988;DHT22;34799;51.440;-2.534;2023-09-19T05:50:36;14.70;99.90
48988;DHT22;34799;51.440;-2.534;2023-09-19T05:53:03;14.80;99.90
48988;DHT22;34799;51.440;-2.534;2023-09-19T05:55:32;14.80;99.90
48988;DHT22;34799;51.440;-2.534;2023-09-19T05:57:59;14.80;99.90
48988;DHT22;34799;51.440;-2.534;2023-09-19T06:00:26;14.80;99.90
48988;DHT22;34799;51.440;-2.534;2023-09-19T06:02:59;14.90;99.90
48988;DHT22;34799;51.440;-2.534;2023-09-19T06:05:27;14.90;99.90
48988;DHT22;34799;51.440;-2.534;2023-09-19T06:07:55;14.90;99.90
48988;DHT22;34799;51.440;-2.534;2023-09-19T06:10:24;14.90;99.90
48988;DHT22;34799;51.440;-2.534;2023-09-19T06:12:52;14.90;99.90
48988;DHT22;34799;51.440;-2.534;2023-09-19T06:15:21;14.90;99.90
48988;DHT22;34799;51.440;-2.534;2023-09-19T06:17:53;14.90;99.90
48988;DHT22;34799;51.440;-2.534;2023-09-19T06:20:28;14.90;99.90
48988;DHT22;34799;51.440;-2.534;2023-09-19T06:22:56;14.90;99.90
48988;DHT22;34799;51.440;-2.534;2023-09-19T06:25:23;14.90;99.90
48988;DHT22;34799;51.440;-2.534;2023-09-19T06:27:52;15.00;99.90
48988;DHT22;34799;51.440;-2.534;2023-09-19T06:30:22;14.90;99.90
48988;DHT22;34799;51.440;-2.534;2023-09-19T06:32:57;14.90;99.90
48988;DHT22;34799;51.440;-2.534;2023-09-19T06:35:25;15.00;99.90
48988;DHT22;34799;51.440;-2.534;2023-09-19T06:37:53;15.00;99.90
48988;DHT22;34799;51.440;-2.534;2023-09-19T06:40:20;14.90;99.90
48988;DHT22;34799;51.440;-2.534;2023-09-19T06:42:51;15.00;99.90
48988;DHT22;34799;51.440;-2.534;2023-09-19T06:45:20;15.10;99.90
48988;DHT22;34799;51.440;-2.534;2023-09-19T06:47:50;15.00;99.90
48988;DHT22;34799;51.440;-2.534;2023-09-19T06:50:21;15.00;99.90
48988;DHT22;34799;51.440;-2.534;2023-09-19T06:52:53;15.10;99.90
48988;DHT22;34799;51.440;-2.534;2023-09-19T06:55:23;15.10;99.90
48988;DHT22;34799;51.440;-2.534;2023-09-19T06:57:55;15.10;99.90
48988;DHT22;34799;51.440;-2.534;2023-09-19T07:00:22;15.70;99.90
48988;DHT22;34799;51.440;-2.534;2023-09-19T07:02:59;15.20;99.90
48988;DHT22;34799;51.440;-2.534;2023-09-19T07:05:28;15.20;99.90
48988;DHT22;34799;51.440;-2.534;2023-09-19T07:07:55;15.20;99.90
48988;DHT22;34799;51.440;-2.534;2023-09-19T07:10:22;15.20;99.90
48988;DHT22;34799;51.440;-2.534;2023-09-19T07:12:57;15.20;99.90
48988;DHT22;34799;51.440;-2.534;2023-09-19T07:15:27;15.20;99.90
48988;DHT22;34799;51.440;-2.534;2023-09-19T07:17:55;15.30;99.90
48988;DHT22;34799;51.440;-2.534;2023-09-19T07:20:23;15.30;99.90
48988;DHT22;34799;51.440;-2.534;2023-09-19T07:22:54;15.90;99.90
48988;DHT22;34799;51.440;-2.534;2023-09-19T07:25:28;15.40;99.90
48988;DHT22;34799;51.440;-2.534;2023-09-19T07:27:57;15.50;99.90
48988;DHT22;34799;51.440;-2.534;2023-09-19T07:30:27;15.50;99.90
48988;DHT22;34799;51.440;-2.534;2023-09-19T07:32:54;15.70;99.90
48988;DHT22;34799;51.440;-2.534;2023-09-19T07:35:21;15.50;99.90
48988;DHT22;34799;51.440;-2.534;2023-09-19T07:37:49;15.60;99.90
48988;DHT22;34799;51.440;-2.534;2023-09-19T07:40:18;15.60;99.90
48988;DHT22;34799;51.440;-2.534;2023-09-19T07:42:47;15.60;99.90
48988;DHT22;34799;51.440;-2.534;2023-09-19T07:45:14;15.60;99.90
48988;DHT22;34799;51.440;-2.534;2023-09-19T07:47:49;15.60;99.90
48988;DHT22;34799;51.440;-2.534;2023-09-19T07:50:17;15.70;99.90
48988;DHT22;34799;51.440;-2.534;2023-09-19T07:52:49;15.70;99.90
48988;DHT22;34799;51.440;-2.534;2023-09-19T07:55:22;15.80;99.90
48988;DHT22;34799;51.440;-2.534;2023-09-19T07:57:52;15.80;99.90
48988;DHT22;34799;51.440;-2.534;2023-09-19T08:00:20;15.80;99.90
48988;DHT22;34799;51.440;-2.534;2023-09-19T08:02:47;15.80;99.90
48988;DHT22;34799;51.440;-2.534;2023-09-19T08:05:15;15.80;99.90
48988;DHT22;34799;51.440;-2.534;2023-09-19T08:07:45;15.90;99.90
48988;DHT22;34799;51.440;-2.534;2023-09-19T08:10:16;15.80;99.90
48988;DHT22;34799;51.440;-2.534;2023-09-19T08:12:47;15.90;99.90
48988;DHT22;34799;51.440;-2.534;2023-09-19T08:15:16;16.00;99.90
48988;DHT22;34799;51.440;-2.534;2023-09-19T08:17:43;16.00;99.90
48988;DHT22;34799;51.440;-2.534;2023-09-19T08:20:11;16.10;99.90
48988;DHT22;34799;51.440;-2.534;2023-09-19T08:22:53;16.20;99.90
48988;DHT22;34799;51.440;-2.534;2023-09-19T08:25:22;16.30;99.90
48988;DHT22;34799;51.440;-2.534;2023-09-19T08:27:55;16.30;99.90
48988;DHT22;34799;51.440;-2.534;2023-09-19T08:30:24;16.30;99.90
48988;DHT22;34799;51.440;-2.534;2023-09-19T08:32:59;16.30;99.90
48988;DHT22;34799;51.440;-2.534;2023-09-19T08:35:27;16.30;99.90
48988;DHT22;34799;51.440;-2.534;2023-09-19T08:37:54;16.30;99.90
48988;DHT22;34799;51.440;-2.534;2023-09-19T08:40:22;16.30;99.90
48988;DHT22;34799;51.440;-2.534;2023-09-19T08:42:51;16.30;99.90
48988;DHT22;34799;51.440;-2.534;2023-09-19T08:45:20;16.30;99.90
48988;DHT22;34799;51.440;-2.534;2023-09-19T08:50:51;16.10;99.90
48988;DHT22;34799;51.440;-2.534;2023-09-19T08:53:31;16.10;99.90
48988;DHT22;34799;51.440;-2.534;2023-09-19T08:56:00;16.00;99.90
48988;DHT22;34799;51.440;-2.534;2023-09-19T08:58:36;15.90;99.90
48988;DHT22;34799;51.440;-2.534;2023-09-19T09:01:08;15.90;99.90
48988;DHT22;34799;51.440;-2.534;2023-09-19T09:03:40;16.00;99.90
48988;DHT22;34799;51.440;-2.534;2023-09-19T09:06:14;16.10;99.90
48988;DHT22;34799;51.440;-2.534;2023-09-19T09:08:43;16.20;99.90
48988;DHT22;34799;51.440;-2.534;2023-09-19T09:11:11;16.20;99.90
48988;DHT22;34799;51.440;-2.534;2023-09-19T09:13:41;16.30;99.90
48988;DHT22;34799;51.440;-2.534;2023-09-19T09:16:08;16.30;99.90
48988;DHT22;34799;51.440;-2.534;2023-09-19T09:18:37;16.30;99.90
48988;DHT22;34799;51.440;-2.534;2023-09-19T09:21:04;16.30;99.90
48988;DHT22;34799;51.440;-2.534;2023-09-19T09:23:31;16.40;99.90
48988;DHT22;34799;51.440;-2.534;2023-09-19T09:26:01;16.40;99.90
48988;DHT22;34799;51.440;-2.534;2023-09-19T09:28:34;16.50;99.90
48988;DHT22;34799;51.440;-2.534;2023-09-19T09:31:05;16.50;99.90
48988;DHT22;34799;51.440;-2.534;2023-09-19T09:33:38;16.60;99.90
48988;DHT22;34799;51.440;-2.534;2023-09-19T09:36:07;16.70;99.90
48988;DHT22;34799;51.440;-2.534;2023-09-19T09:38:45;16.60;99.90
48988;DHT22;34799;51.440;-2.534;2023-09-19T09:41:15;16.60;99.90
48988;DHT22;34799;51.440;-2.534;2023-09-19T09:43:54;16.60;99.90
48988;DHT22;34799;51.440;-2.534;2023-09-19T09:46:21;16.60;99.90
48988;DHT22;34799;51.440;-2.534;2023-09-19T09:49:02;16.70;99.90
48988;DHT22;34799;51.440;-2.534;2023-09-19T09:51:48;16.80;99.90
48988;DHT22;34799;51.440;-2.534;2023-09-19T09:54:28;17.00;99.90
48988;DHT22;34799;51.440;-2.534;2023-09-19T09:57:01;17.00;99.90
48988;DHT22;34799;51.440;-2.534;2023-09-19T09:59:52;17.00;99.90
48988;DHT22;34799;51.440;-2.534;2023-09-19T10:02:25;17.00;99.90
48988;DHT22;34799;51.440;-2.534;2023-09-19T10:04:56;17.00;99.90
48988;DHT22;34799;51.440;-2.534;2023-09-19T10:07:43;17.00;99.90
48988;DHT22;34799;51.440;-2.534;2023-09-19T10:13:29;16.90;99.90
48988;DHT22;34799;51.440;-2.534;2023-09-19T10:16:06;16.90;99.90
48988;DHT22;34799;51.440;-2.534;2023-09-19T10:18:40;16.80;99.90
48988;DHT22;34799;51.440;-2.534;2023-09-19T10:21:10;16.90;99.90
48988;DHT22;34799;51.440;-2.534;2023-09-19T10:23:40;16.90;99.90
48988;DHT22;34799;51.440;-2.534;2023-09-19T10:26:12;16.70;99.90
48988;DHT22;34799;51.440;-2.534;2023-09-19T10:28:46;16.80;99.90
48988;DHT22;34799;51.440;-2.534;2023-09-19T10:31:20;16.80;99.90
48988;DHT22;34799;51.440;-2.534;2023-09-19T10:33:55;16.70;99.90
48988;DHT22;34799;51.440;-2.534;2023-09-19T10:36:26;16.80;99.90
48988;DHT22;34799;51.440;-2.534;2023-09-19T10:38:55;16.80;99.90
48988;DHT22;34799;51.440;-2.534;2023-09-19T10:41:25;16.80;99.90
48988;DHT22;34799;51.440;-2.534;2023-09-19T10:43:56;16.90;99.90
48988;DHT22;34799;51.440;-2.534;2023-09-19T10:46:24;16.90;99.90
48988;DHT22;34799;51.440;-2.534;2023-09-19T10:48:52;17.00;99.90
48988;DHT22;34799;51.440;-2.534;2023-09-19T10:51:24;16.90;99.90
48988;DHT22;34799;51.440;-2.534;2023-09-19T10:54:08;17.00;99.90
48988;DHT22;34799;51.440;-2.534;2023-09-19T10:56:48;17.00;99.90
48988;DHT22;34799;51.440;-2.534;2023-09-19T10:59:20;17.00;99.90
48988;DHT22;34799;51.440;-2.534;2023-09-19T11:01:53;17.10;99.90
48988;DHT22;34799;51.440;-2.534;2023-09-19T11:04:33;17.10;99.90
48988;DHT22;34799;51.440;-2.534;2023-09-19T11:07:03;17.20;99.90
48988;DHT22;34799;51.440;-2.534;2023-09-19T11:09:46;17.20;99.90
48988;DHT22;34799;51.440;-2.534;2023-09-19T11:15:03;17.40;99.90
48988;DHT22;34799;51.440;-2.534;2023-09-19T11:17:39;17.40;99.90
48988;DHT22;34799;51.440;-2.534;2023-09-19T11:20:18;17.40;99.90
48988;DHT22;34799;51.440;-2.534;2023-09-19T11:30:38;17.30;99.90
48988;DHT22;34799;51.440;-2.534;2023-09-19T11:33:31;17.30;99.90
48988;DHT22;34799;51.440;-2.534;2023-09-19T11:46:54;17.40;99.90
48988;DHT22;34799;51.440;-2.534;2023-09-19T11:49:29;17.50;99.90
48988;DHT22;34799;51.440;-2.534;2023-09-19T11:52:01;17.50;99.90
48988;DHT22;34799;51.440;-2.534;2023-09-19T11:54:32;17.50;99.90
48988;DHT22;34799;51.440;-2.534;2023-09-19T11:57:00;17.50;99.90
48988;DHT22;34799;51.440;-2.534;2023-09-19T11:59:29;17.50;99.90
48988;DHT22;34799;51.440;-2.534;2023-09-19T12:02:03;17.50;99.90
48988;DHT22;34799;51.440;-2.534;2023-09-19T12:04:42;17.60;99.90
48988;DHT22;34799;51.440;-2.534;2023-09-19T12:07:12;17.60;99.90
48988;DHT22;34799;51.440;-2.534;2023-09-19T12:09:44;17.60;99.90
48988;DHT22;34799;51.440;-2.534;2023-09-19T12:12:24;17.60;99.90
48988;DHT22;34799;51.440;-2.534;2023-09-19T12:14:54;17.60;99.90
48988;DHT22;34799;51.440;-2.534;2023-09-19T12:17:41;17.60;99.90
48988;DHT22;34799;51.440;-2.534;2023-09-19T12:20:09;17.60;99.90
48988;DHT22;34799;51.440;-2.534;2023-09-19T12:22:42;17.70;99.90
48988;DHT22;34799;51.440;-2.534;2023-09-19T12:25:10;17.70;99.90
48988;DHT22;34799;51.440;-2.534;2023-09-19T12:27:47;17.70;99.90
48988;DHT22;34799;51.440;-2.534;2023-09-19T12:30:16;17.80;99.90
48988;DHT22;34799;51.440;-2.534;2023-09-19T12:32:48;17.80;99.90
48988;DHT22;34799;51.440;-2.534;2023-09-19T12:35:30;17.80;99.90
48988;DHT22;34799;51.440;-2.534;2023-09-19T12:37:58;17.80;99.90
48988;DHT22;34799;51.440;-2.534;2023-09-19T12:40:25;17.80;99.90
48988;DHT22;34799;51.440;-2.534;2023-09-19T12:42:56;17.90;99.90
48988;DHT22;34799;51.440;-2.534;2023-09-19T12:45:23;18.00;99.90
48988;DHT22;34799;51.440;-2.534;2023-09-19T12:51:09;18.00;99.90
48988;DHT22;34799;51.440;-2.534;2023-09-19T12:53:43;18.00;99.90
48988;DHT22;34799;51.440;-2.534;2023-09-19T12:56:15;18.10;99.90
48988;DHT22;34799;51.440;-2.534;2023-09-19T12:58:57;18.10;99.90
48988;DHT22;34799;51.440;-2.534;2023-09-19T13:01:26;18.10;99.90
48988;DHT22;34799;51.440;-2.534;2023-09-19T13:04:16;18.10;99.90
48988;DHT22;34799;51.440;-2.534;2023-09-19T13:06:48;18.10;99.90
48988;DHT22;34799;51.440;-2.534;2023-09-19T13:09:17;18.10;99.90
48988;DHT22;34799;51.440;-2.534;2023-09-19T13:11:44;18.20;99.90
48988;DHT22;34799;51.440;-2.534;2023-09-19T13:14:28;18.20;99.90
48988;DHT22;34799;51.440;-2.534;2023-09-19T13:17:01;18.20;99.90
48988;DHT22;34799;51.440;-2.534;2023-09-19T13:19:49;18.30;99.90
48988;DHT22;34799;51.440;-2.534;2023-09-19T13:22:42;18.40;99.90
48988;DHT22;34799;51.440;-2.534;2023-09-19T13:25:13;18.50;99.90
48988;DHT22;34799;51.440;-2.534;2023-09-19T13:27:44;18.50;99.90
48988;DHT22;34799;51.440;-2.534;2023-09-19T13:30:12;18.60;99.90
48988;DHT22;34799;51.440;-2.534;2023-09-19T13:32:40;18.60;99.90
48988;DHT22;34799;51.440;-2.534;2023-09-19T13:35:10;18.70;99.90
48988;DHT22;34799;51.440;-2.534;2023-09-19T13:37:38;18.70;99.90
48988;DHT22;34799;51.440;-2.534;2023-09-19T13:40:13;18.70;99.90
48988;DHT22;34799;51.440;-2.534;2023-09-19T13:42:41;18.80;99.90
48988;DHT22;34799;51.440;-2.534;2023-09-19T13:45:09;18.90;99.90
48988;DHT22;34799;51.440;-2.534;2023-09-19T13:47:39;19.00;99.90
48988;DHT22;34799;51.440;-2.534;2023-09-19T13:50:07;19.00;99.90
48988;DHT22;34799;51.440;-2.534;2023-09-19T13:52:34;19.10;99.90
48988;DHT22;34799;51.440;-2.534;2023-09-19T13:55:01;19.10;99.90
48988;DHT22;34799;51.440;-2.534;2023-09-19T13:57:29;19.10;99.90
48988;DHT22;34799;51.440;-2.534;2023-09-19T13:59:56;19.10;99.90
48988;DHT22;34799;51.440;-2.534;2023-09-19T14:02:24;19.10;99.90
48988;DHT22;34799;51.440;-2.534;2023-09-19T14:04:52;19.20;99.90
48988;DHT22;34799;51.440;-2.534;2023-09-19T14:07:19;19.20;99.90
48988;DHT22;34799;51.440;-2.534;2023-09-19T14:09:47;19.20;99.90
48988;DHT22;34799;51.440;-2.534;2023-09-19T14:12:15;19.20;99.90
48988;DHT22;34799;51.440;-2.534;2023-09-19T14:14:43;19.20;99.90
48988;DHT22;34799;51.440;-2.534;2023-09-19T14:17:12;19.20;99.90
48988;DHT22;34799;51.440;-2.534;2023-09-19T14:19:41;19.30;99.90
48988;DHT22;34799;51.440;-2.534;2023-09-19T14:22:11;19.40;99.90
48988;DHT22;34799;51.440;-2.534;2023-09-19T14:24:41;19.40;99.90
48988;DHT22;34799;51.440;-2.534;2023-09-19T14:27:09;19.30;99.90
48988;DHT22;34799;51.440;-2.534;2023-09-19T14:29:37;19.30;99.90
48988;DHT22;34799;51.440;-2.534;2023-09-19T14:32:05;19.30;99.90
48988;DHT22;34799;51.440;-2.534;2023-09-19T14:34:33;19.20;99.90
48988;DHT22;34799;51.440;-2.534;2023-09-19T14:37:01;19.20;99.90
48988;DHT22;34799;51.440;-2.534;2023-09-19T14:39:29;19.20;99.90
48988;DHT22;34799;51.440;-2.534;2023-09-19T14:41:57;19.30;99.90
48988;DHT22;34799;51.440;-2.534;2023-09-19T14:44:25;19.30;99.90
48988;DHT22;34799;51.440;-2.534;2023-09-19T14:46:53;19.40;99.90
48988;DHT22;34799;51.440;-2.534;2023-09-19T14:49:21;19.40;99.90
48988;DHT22;34799;51.440;-2.534;2023-09-19T14:51:49;19.40;99.90
48988;DHT22;34799;51.440;-2.534;2023-09-19T14:54:19;19.30;99.90
48988;DHT22;34799;51.440;-2.534;2023-09-19T14:56:47;19.30;99.90
48988;DHT22;34799;51.440;-2.534;2023-09-19T14:59:21;19.20;99.90
48988;DHT22;34799;51.440;-2.534;2023-09-19T15:01:49;19.20;99.90
48988;DHT22;34799;51.440;-2.534;2023-09-19T15:04:17;19.30;99.90
48988;DHT22;34799;51.440;-2.534;2023-09-19T15:06:45;19.30;99.90
48988;DHT22;34799;51.440;-2.534;2023-09-19T15:09:13;19.30;99.90
48988;DHT22;34799;51.440;-2.534;2023-09-19T15:11:41;19.30;99.90
48988;DHT22;34799;51.440;-2.534;2023-09-19T15:14:09;19.30;99.90
48988;DHT22;34799;51.440;-2.534;2023-09-19T15:16:37;19.30;99.90
48988;DHT22;34799;51.440;-2.534;2023-09-19T15:19:05;19.40;99.90
48988;DHT22;34799;51.440;-2.534;2023-09-19T15:21:35;19.50;99.90
48988;DHT22;34799;51.440;-2.534;2023-09-19T15:24:04;19.60;99.90
48988;DHT22;34799;51.440;-2.534;2023-09-19T15:26:32;19.70;99.90
48988;DHT22;34799;51.440;-2.534;2023-09-19T15:28:59;19.70;99.90
48988;DHT22;34799;51.440;-2.534;2023-09-19T15:31:27;19.60;99.90
48988;DHT22;34799;51.440;-2.534;2023-09-19T15:33:55;19.50;99.90
48988;DHT22;34799;51.440;-2.534;2023-09-19T15:36:23;19.50;99.90
48988;DHT22;34799;51.440;-2.534;2023-09-19T15:41:36;19.30;99.90
48988;DHT22;34799;51.440;-2.534;2023-09-19T15:44:15;19.20;99.90
48988;DHT22;34799;51.440;-2.534;2023-09-19T15:46:43;19.20;99.90
48988;DHT22;34799;51.440;-2.534;2023-09-19T15:49:11;19.10;99.90
48988;DHT22;34799;51.440;-2.534;2023-09-19T15:51:39;18.90;99.90
48988;DHT22;34799;51.440;-2.534;2023-09-19T15:54:11;18.90;99.90
48988;DHT22;34799;51.440;-2.534;2023-09-19T15:56:43;18.80;99.90
48988;DHT22;34799;51.440;-2.534;2023-09-19T15:59:12;18.70;99.90
48988;DHT22;34799;51.440;-2.534;2023-09-19T16:01:40;18.60;99.90
48988;DHT22;34799;51.440;-2.534;2023-09-19T16:04:08;18.60;99.90
48988;DHT22;34799;51.440;-2.534;2023-09-19T16:06:36;18.60;99.90
48988;DHT22;34799;51.440;-2.534;2023-09-19T16:09:05;18.50;99.90
48988;DHT22;34799;51.440;-2.534;2023-09-19T16:11:33;18.50;99.90
48988;DHT22;34799;51.440;-2.534;2023-09-19T16:14:04;18.50;99.90
48988;DHT22;34799;51.440;-2.534;2023-09-19T16:16:35;18.50;99.90
48988;DHT22;34799;51.440;-2.534;2023-09-19T16:19:04;18.40;99.90
48988;DHT22;34799;51.440;-2.534;2023-09-19T16:21:36;18.40;99.90
48988;DHT22;34799;51.440;-2.534;2023-09-19T16:24:04;18.40;99.90